Weather observations for the past three days for
Joliet Regional Airport
Imperial (Metric)
Date Time (cdt) Wind (mph) Vis. (mi.) Weather Sky Cond. Temperature (ºF) Relative Humidity Wind Chill (°F) Heat Index (°F) Pressure Precipitation (in)
Air Dwpt 6 hour altimeter (in) sea level (mb) 1 hr 3 hr 6 hr
Max. Min.
04 16:55 SW 5 10.00 Fair CLR 91.8 76.5 61% 105 29.9 0.0
04 16:35 SW 7 10.00 Fair CLR 92.7 76.5 59% 106 29.9 0.0
04 16:15 SW 7 10.00 Fair CLR 93.2 75.9 57% 106 29.9 0.0
04 15:55 S 8 10.00 Fair CLR 92.3 76.8 61% 106 29.91 0.0
04 15:35 S 6 10.00 Fair CLR 92.1 76.5 60% 105 29.92 0.0
04 15:15 S 8 10.00 Fair CLR 91.6 76.1 61% 104 29.92 0.0
04 14:55 S 5 10.00 Fair CLR 91 75.7 61% 103 29.93 0.0
04 14:35 SE 6 10.00 Fair CLR 90.3 75.2 61% 101 29.94 0.0
04 14:15 SE 7 10.00 Fair CLR 90.3 75.4 62% 101 29.95 0.0
04 13:55 SE 9 10.00 Fair CLR 89.6 74.8 62% 100 29.96 0.0
04 13:35 E 12 10.00 Fair CLR 89.1 75.2 64% 99 29.97 0.0
04 13:15 E 12 G 17 10.00 Fair CLR 88.2 73.9 63% 97 29.98 0.0
04 12:55 E 14 G 18 10.00 Fair CLR 88.2 74.5 90.7 74.3 64% 97 29.99 0.0
04 12:35 NE 13 10.00 Fair CLR 87.8 75 66% 98 29.99 0.0
04 12:15 NE 15 G 22 10.00 Partly Cloudy SCT031 87.8 75.7 68% 98 30 0.0
04 11:55 NE 15 10.00 Partly Cloudy SCT033 SCT095 SCT120 88.2 76.8 69% 100 30 0.0
04 11:35 NE 8 10.00 Partly Cloudy SCT095 SCT120 89.6 74.8 62% 100 29.99 0.0
04 11:15 NE 3 10.00 Fair CLR 88.9 73.8 61% 98 29.99 0.0
04 10:55 N 7 10.00 Fair CLR 88.5 74.1 63% 98 29.98 0.0
04 10:35 N 3 10.00 Fair CLR 88.2 73.2 61% 96 29.98 0.0
04 10:15 Calm 10.00 Partly Cloudy SCT085 88.2 74.3 64% 97 29.97 0.0
04 09:55 Calm 10.00 Fair CLR 86.5 73.8 66% 95 29.97 0.0
04 09:35 W 3 10.00 Partly Cloudy SCT085 SCT120 86 73.2 66% 93 29.97 0.0
04 09:15 W 5 10.00 Partly Cloudy SCT120 86 73.2 66% 93 29.97 0.0
04 08:55 W 3 10.00 Fair CLR 85.3 73.6 68% 93 29.96 0.0
04 08:35 Calm 10.00 Fair CLR 82.9 74.1 75% 90 29.96 0.0
04 08:15 Calm 10.00 Fair CLR 81.7 74.1 78% 88 29.96 0.0
04 07:55 Calm 10.00 Fair CLR 80.4 74.5 82% 85 29.94 0.0
04 07:35 Calm 10.00 Fair CLR 78.3 75.4 91% 81 29.94 0.0
04 07:15 Calm 10.00 Fair CLR 75.7 74.7 96% 75 29.93 0.0
04 06:55 Calm 10.00 Fair CLR 74.3 72.9 79 73.9 95% 29.92 0.0
04 06:35 Calm 10.00 Fair CLR 75.2 73.2 94% 74 29.91 0.0
04 06:15 SW 3 10.00 Fair CLR 75.9 73.6 93% 76 29.91 0.0
04 05:55 SW 3 10.00 Fair CLR 75 73.4 95% 73 29.91 0.0
04 05:35 SW 5 10.00 Fair CLR 76.1 74.1 94% 76 29.91 0.0
04 05:15 S 3 10.00 Fair CLR 73.9 73.2 98% 29.92 0.0
04 04:55 Calm 10.00 Fair CLR 76.6 74.3 93% 77 29.92 0.0
04 04:35 Calm 10.00 Fair CLR 75.4 75.2 99% 73 29.92 0.0
04 04:15 Calm 10.00 Fair CLR 74.3 74.3 100% 29.94 0.0
04 03:55 Calm 10.00 Fair CLR 75.2 74.8 99% 73 29.93 0.0
04 03:35 Calm 10.00 Fair CLR 77 75.4 95% 78 29.93 0.0
04 03:15 Calm 10.00 Fair CLR 77.9 75.4 92% 80 29.92 0.0
04 02:55 Calm 10.00 Fair CLR 77.9 75.6 93% 80 29.91 0.0
04 02:35 SW 3 10.00 Fair CLR 77.2 75.9 96% 78 29.91 0.0
04 02:15 S 3 10.00 Fair CLR 77 75.9 96% 78 29.91 0.0
04 01:55 S 3 10.00 Fair CLR 76.1 76.1 100% 75 29.93 0.0
04 01:35 Calm 10.00 Fair CLR 76.5 75.9 98% 76 29.93 0.0
04 01:15 Calm 10.00 Fair CLR 79 76.1 91% 83 29.94 0.0
04 00:55 Calm 10.00 Fair CLR 79.2 75.4 88.7 78.3 88% 83 29.94 0.0
04 00:35 Calm 10.00 Fair CLR 79 75.9 90% 83 29.94 0.0
04 00:15 Calm 10.00 Fair CLR 78.6 75.6 90% 82 29.94 0.0
03 23:55 Calm 10.00 Fair CLR 79.5 75.6 88% 84 29.94 0.0
03 23:35 Calm 10.00 Fair CLR 80.2 75.4 85% 86 29.94 0.0
03 23:15 Calm 10.00 Fair CLR 80.6 75.6 85% 86 29.94 0.0
03 22:55 Calm 10.00 Fair CLR 80.2 77 90% 86 29.94 0.0
03 22:35 Calm 10.00 Fair CLR 81.3 77.4 88% 89 29.94 0.0
03 22:15 Calm 10.00 Fair CLR 80.1 77.9 93% 86 29.94 0.0
03 21:55 SE 3 10.00 Fair CLR 80.1 77.7 93% 86 29.95 0.0
03 21:35 Calm 10.00 Fair CLR 80.8 77.7 90% 88 29.94 0.0
03 21:15 Calm 10.00 Fair CLR 82.6 77.2 84% 91 29.94 0.0
03 20:55 Calm 10.00 Fair CLR 85.6 76.5 74% 96 29.93 0.0
03 20:35 Calm 10.00 Fair CLR 86 77.9 77% 98 29.91 0.0
03 20:15 S 3 10.00 Fair CLR 86 77.9 77% 98 29.9 0.0
03 19:55 S 3 10.00 Fair CLR 85.8 77.7 77% 98 29.89 0.0
03 19:35 Calm 10.00 Fair CLR 84.6 77.5 80% 95 29.89 0.0
03 19:15 Calm 10.00 Fair CLR 86.5 76.8 73% 98 29.89 0.0
03 18:55 Calm 10.00 Fair CLR 88.9 75.7 93.7 88.9 65% 100 29.9 0.0
03 18:35 S 3 10.00 Fair CLR 90 75.2 62% 101 29.9 0.0
03 18:15 SW 5 10.00 Partly Cloudy SCT090 SCT110 90.9 75.6 61% 102 29.9 0.0
03 17:55 S 6 10.00 Mostly Cloudy BKN090 BKN120 91.4 75.4 60% 103 29.91 0.0
03 17:35 S 7 10.00 Mostly Cloudy BKN090 BKN120 91.8 76.1 60% 104 29.91 0.0
03 17:15 SW 3 10.00 Mostly Cloudy BKN100 BKN120 91 75.4 60% 102 29.91 0.0
03 16:55 S 5 10.00 Partly Cloudy SCT100 91.6 75.4 59% 103 29.91 0.0
03 16:35 S 6 10.00 Fair CLR 93 76.1 58% 106 29.91 0.0
03 16:15 S 6 10.00 Fair CLR 93.4 75.4 56% 105 29.91 0.0
03 15:55 SW 5 10.00 Fair CLR 93.4 73.6 53% 103 29.92 0.0
03 15:35 S 6 10.00 Fair CLR 93.4 75.2 56% 105 29.92 0.0
03 15:15 E 3 10.00 Fair CLR 93.4 75.4 56% 105 29.93 0.0
03 14:55 E 3 10.00 Fair CLR 93 75.2 56% 105 29.93 0.0
03 14:35 E 5 10.00 Fair CLR 92.1 74.7 57% 103 29.94 0.0
03 14:15 E 6 10.00 Fair CLR 91.8 75.4 59% 103 29.95 0.0
03 13:55 E 6 10.00 Fair CLR 90.9 74.7 59% 101 29.95 0.0
03 13:35 NE 7 10.00 Fair CLR 90.3 73.9 59% 100 29.96 0.0
03 13:15 NE 8 10.00 Partly Cloudy SCT080 90.1 73.6 58% 99 29.96 0.0
03 12:55 N 9 10.00 Fair CLR 89.6 73.8 93 75.6 60% 99 29.96 0.0
03 12:35 NE 10 G 16 10.00 Partly Cloudy SCT036 90.1 75 61% 101 29.97 0.0
03 12:15 W 6 10.00 Partly Cloudy SCT036 SCT090 SCT120 90 75.6 63% 101 29.97 0.0
03 11:55 NW 3 10.00 Mostly Cloudy BKN090 BKN120 90 75.2 62% 101 29.97 0.0
03 11:35 NW 5 10.00 Overcast BKN090 OVC120 89.8 74.3 60% 99 29.97 0.0
03 11:15 SW 7 10.00 Mostly Cloudy BKN120 90.9 75.2 60% 102 29.95 0.0
03 10:55 SW 5 10.00 Mostly Cloudy BKN110 89.2 74.7 62% 99 29.95 0.0
03 10:35 SW 6 10.00 Fair CLR 89.2 74.8 63% 99 29.95 0.0
03 10:15 SW 5 10.00 Fair CLR 88 73.9 63% 97 29.95 0.0
03 09:55 SW 3 10.00 Fair CLR 87.6 74.7 66% 97 29.96 0.0
03 09:35 SW 3 10.00 Fair CLR 86.7 73.9 66% 95 29.95 0.0
03 09:15 SW 7 10.00 Fair CLR 85.3 73.9 69% 93 29.95 0.0
03 08:55 SW 5 10.00 Fair CLR 84.2 73.6 71% 91 29.95 0.0
03 08:35 S 3 10.00 Fair CLR 82.4 74.3 77% 89 29.95 0.0
03 08:15 S 5 10.00 Fair CLR 81 74.8 82% 87 29.96 0.0
03 07:55 S 5 10.00 Fair CLR 79.5 74.8 86% 84 29.96 0.0
03 07:35 Calm 10.00 Fair CLR 78.3 75 90% 81 29.96 0.0
03 07:15 Calm 10.00 Fair CLR 77 74.5 92% 78 29.96 0.0
03 06:55 Calm 10.00 Fair CLR 75.6 73.4 76.8 74.3 93% 75 29.96 0.0
03 06:35 Calm 10.00 Fair CLR 75.4 73.2 93% 74 29.96 0.0
03 06:15 Calm 10.00 Fair CLR 74.5 73.6 97% 29.95 0.0
03 05:55 Calm 10.00 Fair CLR 74.3 73.8 98% 29.95 0.0
03 05:35 Calm 10.00 Fair CLR 75.9 73.6 93% 76 29.95 0.0
03 05:15 Calm 10.00 Fair CLR 75.9 73.9 94% 75 29.95 0.0
03 04:55 Calm 10.00 Fair CLR 76.3 74.3 94% 76 29.95 0.0
03 04:35 Calm 10.00 Fair CLR 76.6 74.7 94% 77 29.95 0.0
03 04:15 SW 3 10.00 Fair CLR 75.6 75.6 100% 74 29.95 0.0
03 03:55 S 3 10.00 Fair CLR 74.7 74.7 100% 29.94 0.0
03 03:35 Calm 10.00 Fair CLR 74.8 74.8 100% 29.94 0.0
03 03:15 Calm 7.00 Fair CLR 74.5 74.5 100% 29.94 0.0
03 02:55 Calm 10.00 Fair CLR 74.3 74.3 100% 29.94 0.0
03 02:35 Calm 10.00 Fair CLR 75.2 75.2 100% 73 29.94 0.0
03 02:15 Calm 7.00 Fair CLR 75.2 75.2 100% 73 29.94 0.0
03 01:55 Calm 4.00 Fog/Mist CLR 74.8 74.8 100% 29.94 0.0
03 01:35 Calm 7.00 Fair CLR 74.7 74.7 100% 29.94 0.0
03 01:15 Calm 7.00 Fair CLR 75.6 75.6 100% 74 29.94 0.0
03 00:55 Calm 10.00 Fair CLR 76.1 76.1 89.2 75.6 100% 75 29.94 0.0
03 00:35 Calm 10.00 Fair CLR 76.1 75.9 99% 75 29.94 0.0
03 00:15 Calm 10.00 Fair CLR 76.1 75.6 98% 75 29.94 0.0
02 23:55 Calm 10.00 Fair CLR 77 76.1 97% 78 29.94 0.0
02 23:35 Calm 10.00 Fair CLR 77.7 76.1 95% 80 29.94 0.0
02 23:15 Calm 10.00 Fair CLR 80.6 76.5 87% 87 29.94 0.0
02 22:55 SW 3 10.00 Fair CLR 82.6 76.1 81% 90 29.93 0.0
02 22:35 SW 5 10.00 Fair CLR 81.1 76.1 85% 88 29.93 0.0
02 22:15 SW 3 10.00 Fair CLR 81.1 76.1 85% 88 29.93 0.0
02 21:55 SW 3 10.00 Fair CLR 83.1 76.1 79% 91 29.93 0.0
02 21:35 SW 3 10.00 Fair CLR 82.8 76.1 80% 91 29.94 0.0
02 21:15 Calm 10.00 Fair CLR 84.6 76.1 76% 94 29.93 0.0
02 20:55 S 3 10.00 Fair CLR 83.7 75.6 77% 92 29.92 0.0
02 20:35 SW 5 10.00 Fair CLR 85.8 75.4 71% 95 29.92 0.0
02 20:15 SW 3 10.00 Fair CLR 86.7 75.6 69% 97 29.91 0.0
02 19:55 SW 3 10.00 Fair CLR 86.5 76.1 71% 97 29.91 0.0
02 19:35 SW 3 10.00 Partly Cloudy SCT110 88 76.1 68% 99 29.91 0.0
02 19:15 SW 3 10.00 Mostly Cloudy BKN110 88.3 76.1 67% 100 29.91 0.0
02 18:55 SW 3 10.00 Partly Cloudy SCT110 89.6 76.1 96.1 89.6 65% 101 29.91 0.0
02 18:35 SW 6 10.00 Fair CLR 90.3 76.1 63% 102 29.91 0.0
02 18:15 SW 6 10.00 Partly Cloudy SCT120 91.4 75.6 60% 103 29.92 0.0
02 17:55 SW 7 10.00 Fair CLR 91.4 75.2 59% 103 29.92 0.0
02 17:35 SW 6 10.00 Fair CLR 92.8 75.4 57% 105 29.92 0.0
02 17:15 SW 7 10.00 Fair CLR 93.2 75.4 56% 105 29.92 0.0
02 16:55 SW 7 10.00 Partly Cloudy SCT100 94.3 75.4 54% 107 29.92 0.0
02 16:35 SW 6 10.00 Partly Cloudy SCT100 93.7 74.5 54% 105 29.93 0.0
02 16:15 SW 7 10.00 Fair CLR 94.5 73 50% 104 29.93 0.0
02 15:55 SW 5 10.00 Partly Cloudy SCT100 95.9 73.8 49% 107 29.93 0.0
02 15:35 SW 7 10.00 Partly Cloudy SCT100 95.9 74.5 50% 107 29.93 0.0
02 15:15 SW 7 10.00 Partly Cloudy SCT100 94.5 74.1 52% 105 29.94 0.0
02 14:55 SW 6 10.00 Partly Cloudy SCT100 95.7 73.8 49% 106 29.94 0.0
02 14:35 SW 7 10.00 Partly Cloudy SCT100 95.2 74.7 52% 107 29.94 0.0
02 14:15 W 8 10.00 Fair CLR 95 73 49% 105 29.95 0.0
02 13:55 SW 3 10.00 Partly Cloudy SCT100 94.1 74.1 52% 105 29.95 0.0
02 13:35 SW 8 10.00 Fair CLR 94.1 74.3 53% 105 29.96 0.0
02 13:15 SW 8 10.00 Fair CLR 93.2 74.5 55% 104 29.96 0.0
02 12:55 SW 9 10.00 Fair CLR 92.1 74.1 92.5 74.1 56% 102 29.96 0.0
02 12:35 SW 5 10.00 Fair CLR 91.8 74.3 57% 102 29.96 0.0
02 12:15 SW 3 10.00 Fair CLR 91 75.4 60% 102 29.97 0.0
02 11:55 SW 3 10.00 Fair CLR 89.1 74.7 63% 99 29.97 0.0
02 11:35 SW 6 10.00 Fair CLR 88.9 74.1 62% 98 29.98 0.0
02 11:15 W 3 10.00 Fair CLR 88.5 74.7 64% 98 29.99 0.0
02 10:55 W 6 10.00 Fair CLR 88.2 74.8 65% 98 29.99 0.0
02 10:35 NW 5 10.00 Fair CLR 87.3 74.5 66% 96 29.99 0.0
02 10:15 SW 3 10.00 Fair CLR 86 74.1 68% 94 29.97 0.0
02 09:55 SW 5 10.00 Fair CLR 85.3 74.3 70% 93 29.97 0.0
02 09:35 SW 3 10.00 Fair CLR 83.8 73.4 71% 90 29.98 0.0
02 09:15 SW 8 10.00 Fair CLR 83.5 73.8 73% 90 29.98 0.0
02 08:55 SW 3 10.00 Fair CLR 83.7 73.6 72% 90 29.98 0.0
02 08:35 S 3 10.00 Fair CLR 81.7 73.6 77% 87 29.99 0.0
02 08:15 SW 3 10.00 Fair CLR 80.2 73.6 80% 85 29.99 0.0
02 07:55 Calm 10.00 Fair CLR 78.8 73.4 84% 82 29.99 0.0
02 07:35 S 3 10.00 Partly Cloudy SCT090 77.2 73 87% 79 29.99 0.0
02 07:15 S 3 10.00 Fair CLR 75.6 72.5 90% 75 29.99 0.0
02 06:55 Calm 10.00 Partly Cloudy SCT090 73.8 73 78.3 72.5 98% 29.98 0.0
02 06:35 Calm 10.00 Mostly Cloudy BKN090 72.9 72.5 99% 29.98 0.0
02 06:15 Calm 10.00 Mostly Cloudy BKN090 72.9 71.8 96% 29.99 0.0
02 05:55 Calm 10.00 Partly Cloudy SCT085 73.6 72.7 97% 29.98 0.0
02 05:35 Calm 10.00 Mostly Cloudy BKN085 75 72.5 92% 74 29.98 0.0
02 05:15 Calm 10.00 Partly Cloudy SCT085 75.4 72.5 91% 75 29.98 0.0
02 04:55 Calm 10.00 Partly Cloudy SCT085 75.6 72.5 90% 75 29.98 0.0
02 04:35 Calm 10.00 Fair CLR 76.3 72.5 88% 77 29.97 0.0
02 04:15 S 5 10.00 Fair CLR 75.9 72.5 89% 76 29.97 0.0
02 03:55 Calm 10.00 Fair CLR 76.3 72.7 89% 77 29.97 0.0
02 03:35 Calm 10.00 Fair CLR 77 72.7 87% 78 29.97 0.0
02 03:15 S 3 10.00 Fair CLR 77 73.2 88% 78 29.97 0.0
02 02:55 Calm 10.00 Fair CLR 76.3 73.9 93% 76 29.97 0.0
02 02:35 Calm 10.00 Fair CLR 75.2 74.5 98% 73 29.96 0.0
02 02:15 Calm 10.00 Fair CLR 75.4 75 99% 73 29.96 0.0
02 01:55 Calm 10.00 Partly Cloudy SCT085 76.1 74.5 95% 76 29.97 0.0
02 01:35 Calm 10.00 Fair CLR 77.9 74.7 90% 80 29.97 0.0
02 01:15 SW 3 10.00 Fair CLR 77.2 75 93% 78 29.97 0.0
02 00:55 S 3 10.00 Partly Cloudy SCT085 77 75.4 89.6 75.7 95% 78 29.97 0.0
02 00:35 Calm 10.00 Mostly Cloudy BKN085 76.8 75.9 97% 77 29.97 0.0
02 00:15 S 3 10.00 Mostly Cloudy BKN085 76.3 76.1 99% 76 29.97 0.0
01 23:55 Calm 10.00 Partly Cloudy SCT085 76.1 75.7 99% 75 29.97 0.0
01 23:35 Calm 10.00 Fair CLR 76.5 75.9 98% 76 29.97 0.0
01 23:15 Calm 10.00 Fair CLR 77 75.7 96% 78 29.97 0.0
01 22:55 Calm 10.00 Fair CLR 77 75.7 96% 78 29.97 0.0
01 22:35 Calm 10.00 Fair CLR 79.3 75.2 87% 84 29.97 0.0
01 22:15 Calm 10.00 Fair CLR 80.6 74.7 82% 86 29.97 0.0
01 21:55 Calm 10.00 Fair CLR 81.5 74.5 79% 87 29.97 0.0
01 21:35 Calm 10.00 Fair CLR 81.7 74.7 79% 88 29.97 0.0
01 21:15 Calm 10.00 Fair CLR 82 75.4 80% 89 29.97 0.0
01 20:55 SW 3 10.00 Fair CLR 82.9 75.9 79% 91 29.97 0.0
01 20:35 SW 3 10.00 Fair CLR 83.3 75.2 77% 91 29.96 0.0
01 20:15 SW 3 10.00 Fair CLR 84.9 74.8 72% 93 29.95 0.0
01 19:55 SW 5 10.00 Fair CLR 84.4 75.4 74% 93 29.95 0.0
01 19:35 SW 3 10.00 Fair CLR 85.8 75.6 72% 95 29.94 0.0
01 19:15 SW 3 10.00 Fair CLR 88.9 75.2 64% 99 29.95 0.0
01 18:55 SW 5 10.00 Fair CLR 89.8 75.6 94.5 89.8 63% 101 29.95 0.0
01 18:35 SW 5 10.00 Fair CLR 91.2 75.6 60% 103 29.95 0.0
01 18:15 SW 6 10.00 Fair CLR 92.3 75.6 58% 104 29.95 0.0
01 17:55 SW 5 10.00 Fair CLR 92.7 75 57% 104 29.95 0.0
01 17:35 SW 5 10.00 Fair CLR 92.7 74.7 56% 104 29.95 0.0
01 17:15 SW 5 10.00 Fair CLR 93.2 75.2 56% 105 29.95 0.0
Date Time (cdt) Wind (mph) Vis. (mi.) Weather Sky Cond. Air Dwpt Max. Min. Relative Humidity Wind Chill (°F) Heat Index (°F) altimeter (in) sea level (mb) 1 hr 3 hr 6 hr
6 hour
Temperature (ºF) Pressure Precipitation (in)